Terminal Aerodrome Forecast
Issued by NWS

Home | Current Version | Previous Version | Text Only | Print | Product List | Glossary Off
Versions: 1 2 3 4 5 6 7 8 9 10 11 12 13 14 15 16 17 18 19 20 21 22 23 24 25 26 27 28 29 30 31 32 33 34

142
FTUS43 KLOT 300859 AAA
TAFMDW
TAF AMD
KMDW 300859Z 3009/0106 05012KT P6SM VCSH SCT009 OVC015
      TEMPO 3009/3011 4SM -RA OVC010
     FM301600 05014G20KT P6SM VCSH BKN014
     FM302200 04014G21KT 6SM -SHRA SCT010 OVC018
     FM010100 02009KT 3SM -SHRA BKN008 OVC012=

USA.gov is the U.S. government's official web portal to all federal, state and local government web resources and services.